createdAt,value
2023-03-29T00:04:29.647Z,2.27
2023-03-29T00:07:35.739Z,2.28
2023-03-29T00:10:38.453Z,2.30
2023-03-29T00:13:41.051Z,2.30
2023-03-29T00:16:45.164Z,2.23
2023-03-29T00:19:48.076Z,2.32
2023-03-29T00:22:51.115Z,2.35
2023-03-29T00:25:58.097Z,2.37
2023-03-29T00:29:00.908Z,2.37
2023-03-29T00:32:03.590Z,2.37
2023-03-29T00:35:06.592Z,2.40
2023-03-29T00:38:09.667Z,2.41
2023-03-29T00:41:13.677Z,2.42
2023-03-29T00:44:54.115Z,2.41
2023-03-29T00:48:00.303Z,2.42
2023-03-29T00:51:10.430Z,2.41
2023-03-29T00:54:18.769Z,2.41
2023-03-29T00:57:25.831Z,2.39
2023-03-29T01:00:36.696Z,2.39
2023-03-29T01:04:09.004Z,2.37
2023-03-29T01:07:23.412Z,2.36
2023-03-29T01:10:39.329Z,2.33
2023-03-29T01:13:48.668Z,2.33
2023-03-29T01:16:52.005Z,2.32
2023-03-29T01:23:58.417Z,2.25
2023-03-29T01:27:09.566Z,2.25
2023-03-29T01:30:18.568Z,2.25
2023-03-29T01:33:26.474Z,2.24
2023-03-29T01:36:37.212Z,2.22
2023-03-29T01:39:40.139Z,2.24
2023-03-29T01:42:49.761Z,2.25
2023-03-29T01:46:02.127Z,2.23
2023-03-29T01:49:13.557Z,2.22
2023-03-29T01:52:23.227Z,2.23
2023-03-29T01:55:32.159Z,2.24
2023-03-29T01:58:40.978Z,2.27
2023-03-29T02:02:05.043Z,2.28
2023-03-29T02:05:10.108Z,2.28
2023-03-29T02:12:20.235Z,2.26
2023-03-29T02:15:23.662Z,2.27
2023-03-29T02:18:26.340Z,2.23
2023-03-29T02:22:16.688Z,2.19
2023-03-29T02:25:19.997Z,2.17
2023-03-29T02:28:24.724Z,2.14
2023-03-29T02:31:33.965Z,2.06
2023-03-29T02:34:51.083Z,2.01
2023-03-29T02:37:56.521Z,1.87
2023-03-29T02:41:01.150Z,1.73
2023-03-29T02:44:08.288Z,1.67
2023-03-29T02:47:24.957Z,1.58
2023-03-29T02:50:35.686Z,1.49
2023-03-29T02:53:47.441Z,1.47
2023-03-29T02:57:00.908Z,1.41
2023-03-29T03:00:05.511Z,1.36
2023-03-29T03:03:09.865Z,1.37
2023-03-29T03:06:13.632Z,1.34
2023-03-29T03:09:19.274Z,1.26
2023-03-29T03:12:21.843Z,1.23
2023-03-29T03:15:24.521Z,1.23
2023-03-29T03:18:27.866Z,1.28
2023-03-29T03:21:30.532Z,1.29
2023-03-29T03:24:56.473Z,1.22
2023-03-29T03:27:59.158Z,1.33
2023-03-29T03:31:02.257Z,1.31
2023-03-29T03:34:05.028Z,1.32
2023-03-29T03:37:07.602Z,1.36
2023-03-29T03:40:12.009Z,1.42
2023-03-29T03:43:14.749Z,1.48
2023-03-29T03:46:18.223Z,1.53
2023-03-29T03:49:21.963Z,1.56
2023-03-29T03:56:18.324Z,1.62
2023-03-29T03:59:27.063Z,1.66
2023-03-29T04:02:31.005Z,1.67
2023-03-29T04:05:34.207Z,1.67
2023-03-29T04:08:36.812Z,1.69
2023-03-29T04:16:05.999Z,1.63
2023-03-29T04:19:08.604Z,1.60
2023-03-29T04:22:11.194Z,1.58
2023-03-29T04:28:57.639Z,1.58
2023-03-29T04:32:00.390Z,1.59
2023-03-29T04:35:04.891Z,1.57
2023-03-29T04:38:10.284Z,1.55
2023-03-29T04:41:13.571Z,1.52
2023-03-29T04:44:16.249Z,1.49
2023-03-29T04:47:19.646Z,1.48
2023-03-29T04:50:22.257Z,1.48
2023-03-29T04:53:25.221Z,1.45
2023-03-29T04:57:00.376Z,1.43
2023-03-29T05:00:08.834Z,1.42
2023-03-29T05:07:20.636Z,1.29
2023-03-29T05:15:41.173Z,1.33
2023-03-29T05:18:44.594Z,1.32
2023-03-29T05:26:10.061Z,1.39
2023-03-29T05:36:15.296Z,1.45
2023-03-29T05:39:18.292Z,1.42
2023-03-29T05:42:22.700Z,1.36
2023-03-29T05:45:28.787Z,1.30
2023-03-29T05:48:32.817Z,1.30
2023-03-29T05:51:35.669Z,1.34
2023-03-29T05:54:53.996Z,1.33
2023-03-29T05:57:57.965Z,1.33
2023-03-29T06:01:04.683Z,1.37
2023-03-29T06:04:07.737Z,1.34
2023-03-29T06:07:12.713Z,1.31
2023-03-29T06:10:16.013Z,1.27
2023-03-29T06:13:18.819Z,1.23
2023-03-29T06:16:21.705Z,1.19
2023-03-29T06:19:24.583Z,1.25
2023-03-29T06:22:28.007Z,1.32
2023-03-29T06:25:30.633Z,1.32
2023-03-29T06:28:33.440Z,1.32
2023-03-29T06:31:36.657Z,1.33
2023-03-29T06:34:39.681Z,1.36
2023-03-29T06:37:49.533Z,1.35
2023-03-29T06:40:52.852Z,1.37
2023-03-29T06:43:55.649Z,1.40
2023-03-29T06:46:59.578Z,1.42
2023-03-29T06:50:02.308Z,1.45
2023-03-29T06:53:05.049Z,1.52
2023-03-29T06:56:09.875Z,1.58
2023-03-29T06:59:13.680Z,1.66
2023-03-29T07:02:17.587Z,1.73
2023-03-29T07:05:22.069Z,1.82
2023-03-29T07:08:31.383Z,1.91
2023-03-29T07:11:35.533Z,1.97
2023-03-29T07:14:38.154Z,2.03
2023-03-29T07:17:41.938Z,2.11
2023-03-29T07:20:45.094Z,2.19
2023-03-29T07:23:47.967Z,2.26
2023-03-29T07:27:03.190Z,2.31
2023-03-29T07:30:11.354Z,2.35
2023-03-29T07:33:14.528Z,2.41
2023-03-29T07:36:17.418Z,2.49
2023-03-29T07:43:07.552Z,2.56
2023-03-29T07:46:11.313Z,2.57
2023-03-29T07:49:14.009Z,2.60
2023-03-29T07:52:17.024Z,2.63
2023-03-29T07:55:19.704Z,2.66
2023-03-29T07:58:22.599Z,2.74
2023-03-29T08:01:25.736Z,2.76
2023-03-29T08:05:09.501Z,2.80
2023-03-29T08:08:14.244Z,2.86
2023-03-29T08:11:20.195Z,2.92
2023-03-29T08:14:23.921Z,2.97
2023-03-29T08:17:26.682Z,3.06
2023-03-29T08:20:29.500Z,3.17
2023-03-29T08:24:19.746Z,3.28
2023-03-29T08:27:23.576Z,3.40
2023-03-29T08:30:27.166Z,3.55
2023-03-29T08:33:29.773Z,3.72
2023-03-29T08:36:33.170Z,3.89
2023-03-29T08:44:06.598Z,4.13
2023-03-29T08:47:42.582Z,4.25
2023-03-29T08:50:54.675Z,4.33
2023-03-29T08:54:05.414Z,4.43
2023-03-29T08:57:32.850Z,4.53
2023-03-29T09:00:42.931Z,4.58
2023-03-29T09:03:54.006Z,4.64
2023-03-29T09:06:57.945Z,4.73
2023-03-29T09:10:00.808Z,4.80
2023-03-29T09:13:21.515Z,4.86
2023-03-29T09:16:45.341Z,4.91
2023-03-29T09:19:54.053Z,4.99
2023-03-29T09:23:24.434Z,5.02
2023-03-29T09:26:39.498Z,5.04
2023-03-29T09:33:50.550Z,5.16
2023-03-29T09:36:56.917Z,5.24
2023-03-29T09:40:02.042Z,5.28
2023-03-29T09:43:12.381Z,5.36
2023-03-29T09:46:40.775Z,5.47
2023-03-29T09:53:52.442Z,5.66
2023-03-29T09:56:55.133Z,5.71
2023-03-29T10:00:01.898Z,5.73
2023-03-29T10:03:07.970Z,5.75
2023-03-29T10:06:12.697Z,5.80
2023-03-29T10:09:20.067Z,5.80
2023-03-29T10:12:23.198Z,5.85
2023-03-29T10:15:30.392Z,5.90
2023-03-29T10:18:44.033Z,5.94
2023-03-29T10:21:52.906Z,5.99
2023-03-29T10:24:57.242Z,6.04
2023-03-29T10:28:07.526Z,6.10
2023-03-29T10:31:18.920Z,6.19
2023-03-29T10:34:26.331Z,6.26
2023-03-29T10:37:29.209Z,6.31
2023-03-29T10:40:34.189Z,6.34
2023-03-29T10:43:40.012Z,6.37
2023-03-29T10:46:44.278Z,6.42
2023-03-29T10:49:53.209Z,6.47
2023-03-29T10:52:57.798Z,6.54
2023-03-29T10:56:23.209Z,6.63
2023-03-29T10:59:54.005Z,6.78
2023-03-29T11:03:16.993Z,6.93
2023-03-29T11:06:33.137Z,7.00
2023-03-29T11:09:53.317Z,7.17
2023-03-29T11:13:08.564Z,7.32
2023-03-29T11:16:30.264Z,7.39
2023-03-29T11:19:44.655Z,7.44
2023-03-29T11:23:18.287Z,7.51
2023-03-29T11:26:27.268Z,7.56
2023-03-29T11:30:14.400Z,7.62
2023-03-29T11:33:29.236Z,7.67
2023-03-29T11:36:50.498Z,7.67
2023-03-29T11:40:13.782Z,7.69
2023-03-29T11:43:28.071Z,7.75
2023-03-29T11:46:42.704Z,7.81
2023-03-29T11:49:56.342Z,7.85
2023-03-29T11:53:07.115Z,7.87
2023-03-29T11:56:19.734Z,7.93
2023-03-29T11:59:35.806Z,7.98
2023-03-29T12:02:49.508Z,8.05
2023-03-29T12:05:54.027Z,8.17
2023-03-29T12:09:00.654Z,8.20
2023-03-29T12:12:19.991Z,8.24
2023-03-29T12:15:24.967Z,8.34
2023-03-29T12:18:33.193Z,8.46
2023-03-29T12:21:36.830Z,8.49
2023-03-29T12:24:43.573Z,8.52
2023-03-29T12:28:14.022Z,8.50
2023-03-29T12:31:34.620Z,8.47
2023-03-29T12:35:32.130Z,8.42
2023-03-29T12:38:37.427Z,8.51
2023-03-29T12:42:19.422Z,8.55
2023-03-29T12:45:33.379Z,8.50
2023-03-29T12:48:41.734Z,8.49
2023-03-29T12:51:44.576Z,8.52
2023-03-29T12:54:57.303Z,8.60
2023-03-29T12:58:05.532Z,8.68
2023-03-29T13:05:29.675Z,8.83
2023-03-29T13:08:38.818Z,8.87
2023-03-29T13:11:42.739Z,8.96
2023-03-29T13:14:51.835Z,9.07
2023-03-29T13:18:14.130Z,9.27
2023-03-29T13:21:35.548Z,9.28
2023-03-29T13:24:47.269Z,9.19
2023-03-29T13:28:04.733Z,9.07
2023-03-29T13:31:28.812Z,8.91
2023-03-29T13:34:53.484Z,9.00
2023-03-29T13:38:18.178Z,9.01
2023-03-29T13:41:43.859Z,8.97
2023-03-29T13:44:49.198Z,9.04
2023-03-29T13:48:05.607Z,9.11
2023-03-29T13:51:18.069Z,9.18
2023-03-29T13:54:32.449Z,9.13
2023-03-29T13:57:40.143Z,9.14
2023-03-29T14:00:51.368Z,9.20
2023-03-29T14:03:55.543Z,9.21
2023-03-29T14:06:59.135Z,9.19
2023-03-29T14:10:02.225Z,9.17
2023-03-29T14:13:05.143Z,9.24
2023-03-29T14:16:11.663Z,9.25
2023-03-29T14:19:18.414Z,9.20
2023-03-29T14:22:21.972Z,9.12
2023-03-29T14:25:25.545Z,9.01
2023-03-29T14:28:29.006Z,8.95
2023-03-29T14:31:36.123Z,8.99
2023-03-29T14:34:40.189Z,9.08
2023-03-29T14:37:44.206Z,9.13
2023-03-29T14:40:47.070Z,9.13
2023-03-29T14:43:50.732Z,9.08
2023-03-29T14:46:54.253Z,9.07
2023-03-29T14:50:01.911Z,8.95
2023-03-29T14:53:06.164Z,8.80
2023-03-29T14:56:13.798Z,8.80
2023-03-29T14:59:28.981Z,8.80
2023-03-29T15:02:33.568Z,8.83
2023-03-29T15:05:41.081Z,8.82
2023-03-29T15:08:54.399Z,8.75
2023-03-29T15:12:04.754Z,8.69
2023-03-29T15:15:12.039Z,8.61
2023-03-29T15:18:17.181Z,8.61
2023-03-29T15:21:22.200Z,8.60
2023-03-29T15:24:32.841Z,8.56
2023-03-29T15:27:42.656Z,8.54
2023-03-29T15:30:54.249Z,8.55
2023-03-29T15:34:10.409Z,8.52
2023-03-29T15:37:13.271Z,8.48
2023-03-29T15:40:17.310Z,8.47
2023-03-29T15:43:21.707Z,8.47
2023-03-29T15:46:24.436Z,8.48
2023-03-29T15:49:27.609Z,8.46
2023-03-29T15:52:30.511Z,8.45
2023-03-29T15:55:33.229Z,8.47
2023-03-29T15:58:37.425Z,8.48
2023-03-29T16:01:41.801Z,8.43
2023-03-29T16:04:44.831Z,8.36
2023-03-29T16:07:47.581Z,8.28
2023-03-29T16:10:50.685Z,8.24
2023-03-29T16:13:53.516Z,8.21
2023-03-29T16:17:06.510Z,8.18
2023-03-29T16:20:13.077Z,8.15
2023-03-29T16:23:23.613Z,8.09
2023-03-29T16:26:27.029Z,8.06
2023-03-29T16:29:32.455Z,8.01
2023-03-29T16:32:38.000Z,7.99
2023-03-29T16:35:41.035Z,7.96
2023-03-29T16:38:45.418Z,7.93
2023-03-29T16:41:54.657Z,7.91
2023-03-29T16:45:02.927Z,7.87
2023-03-29T16:48:13.838Z,7.86
2023-03-29T16:51:21.110Z,7.85
2023-03-29T16:54:30.448Z,7.83
2023-03-29T16:57:35.116Z,7.81
2023-03-29T17:00:42.159Z,7.83
2023-03-29T17:03:49.443Z,7.84
2023-03-29T17:06:52.361Z,7.80
2023-03-29T17:09:58.363Z,7.74
2023-03-29T17:13:01.196Z,7.68
2023-03-29T17:16:07.414Z,7.65
2023-03-29T17:19:18.250Z,7.62
2023-03-29T17:22:27.839Z,7.49
2023-03-29T17:25:39.547Z,7.59
2023-03-29T17:28:47.536Z,7.61
2023-03-29T17:32:05.958Z,7.61
2023-03-29T17:35:15.403Z,7.60
2023-03-29T17:42:00.866Z,7.53
2023-03-29T17:45:08.820Z,7.55
2023-03-29T17:48:12.654Z,7.49
2023-03-29T17:51:16.456Z,7.45
2023-03-29T17:54:21.836Z,7.43
2023-03-29T17:57:29.700Z,7.42
2023-03-29T18:00:41.018Z,7.42
2023-03-29T18:03:44.022Z,7.41
2023-03-29T18:06:47.093Z,7.38
2023-03-29T18:10:17.666Z,7.38
2023-03-29T18:13:25.580Z,7.34
2023-03-29T18:19:42.123Z,7.29
2023-03-29T18:22:45.054Z,7.28
2023-03-29T18:25:48.240Z,7.29
2023-03-29T18:28:51.364Z,7.27
2023-03-29T18:31:54.088Z,7.23
2023-03-29T18:34:57.207Z,7.20
2023-03-29T18:37:59.828Z,7.20
2023-03-29T18:41:03.930Z,7.20
2023-03-29T18:44:07.727Z,7.20
2023-03-29T18:47:10.713Z,7.19
2023-03-29T18:50:13.352Z,7.15
2023-03-29T18:53:16.793Z,7.09
2023-03-29T18:56:19.702Z,7.04
2023-03-29T18:59:28.969Z,6.97
2023-03-29T19:02:31.573Z,6.88
2023-03-29T19:05:39.214Z,6.74
2023-03-29T19:08:42.312Z,6.83
2023-03-29T19:11:47.917Z,6.83
2023-03-29T19:14:50.739Z,6.83
2023-03-29T19:17:53.381Z,6.82
2023-03-29T19:20:56.298Z,6.84
2023-03-29T19:24:00.971Z,6.81
2023-03-29T19:27:04.261Z,6.77
2023-03-29T19:30:07.684Z,6.75
2023-03-29T19:38:39.619Z,6.71
2023-03-29T19:45:36.815Z,6.72
2023-03-29T19:48:40.231Z,6.73
2023-03-29T19:52:30.447Z,6.74
2023-03-29T19:55:33.739Z,6.74
2023-03-29T19:58:37.647Z,6.71
2023-03-29T20:01:42.864Z,6.66
2023-03-29T20:04:46.518Z,6.65
2023-03-29T20:07:49.261Z,6.64
2023-03-29T20:11:10.571Z,6.67
2023-03-29T20:14:13.575Z,6.68
2023-03-29T20:17:16.738Z,6.71
2023-03-29T20:20:21.505Z,6.75
2023-03-29T20:23:24.359Z,6.76
2023-03-29T20:26:29.252Z,6.78
2023-03-29T20:29:34.121Z,6.76
2023-03-29T20:32:36.774Z,6.71
2023-03-29T20:35:42.803Z,6.73
2023-03-29T20:38:45.585Z,6.75
2023-03-29T20:41:48.833Z,6.78
2023-03-29T20:44:51.580Z,6.77
2023-03-29T20:48:03.539Z,6.75
2023-03-29T20:51:11.184Z,6.70
2023-03-29T20:54:13.812Z,6.69
2023-03-29T20:57:19.777Z,6.68
2023-03-29T21:00:22.744Z,6.66
2023-03-29T21:07:31.015Z,6.63
2023-03-29T21:10:33.795Z,6.65
2023-03-29T21:13:37.268Z,6.65
2023-03-29T21:16:42.545Z,6.65
2023-03-29T21:23:21.770Z,6.64
2023-03-29T21:26:24.431Z,6.66
2023-03-29T21:37:15.272Z,6.61
2023-03-29T21:40:18.116Z,6.64
2023-03-29T21:43:21.456Z,6.67
2023-03-29T21:46:25.856Z,6.68
2023-03-29T21:50:17.659Z,6.68
2023-03-29T21:53:20.411Z,6.66
2023-03-29T21:56:23.211Z,6.62
2023-03-29T21:59:28.938Z,6.59
2023-03-29T22:13:03.710Z,6.59
2023-03-29T22:16:07.723Z,6.57
2023-03-29T22:19:11.871Z,6.57
2023-03-29T22:22:14.828Z,6.56
2023-03-29T22:25:19.472Z,6.56
2023-03-29T22:28:22.091Z,6.58
2023-03-29T22:31:26.470Z,6.58
2023-03-29T22:34:30.139Z,6.59
2023-03-29T22:37:33.357Z,6.60
2023-03-29T22:40:41.261Z,6.62
2023-03-29T22:43:44.797Z,6.63
2023-03-29T22:46:47.532Z,6.62
2023-03-29T22:49:50.095Z,6.61
2023-03-29T22:58:34.239Z,6.65
2023-03-29T23:01:36.957Z,6.62
2023-03-29T23:04:39.594Z,6.61
2023-03-29T23:07:42.186Z,6.62
2023-03-29T23:10:46.239Z,6.67
2023-03-29T23:13:49.025Z,6.69
2023-03-29T23:16:51.685Z,6.71
2023-03-29T23:20:17.892Z,6.70
2023-03-29T23:23:21.873Z,6.69
2023-03-29T23:26:24.442Z,6.72
2023-03-29T23:29:27.430Z,6.73
2023-03-29T23:32:30.389Z,6.72
2023-03-29T23:35:33.414Z,6.73
2023-03-29T23:38:38.771Z,6.72
2023-03-29T23:41:41.403Z,6.72
2023-03-29T23:44:44.061Z,6.72
2023-03-29T23:47:46.736Z,6.73
2023-03-29T23:50:50.181Z,6.74
2023-03-29T23:53:52.772Z,6.74
2023-03-29T23:56:55.371Z,6.75
